sensor_id;sensor_type;location;lat;lon;timestamp;pressure;altitude;pressure_sealevel;temperature;humidity
6506;BME280;3286;49.858;8.768;2023-05-09T00:00:28;99483.53;;;18.02;59.50
6506;BME280;3286;49.858;8.768;2023-05-09T00:02:56;99482.50;;;18.03;59.42
6506;BME280;3286;49.858;8.768;2023-05-09T00:05:22;99490.53;;;17.44;61.21
6506;BME280;3286;49.858;8.768;2023-05-09T00:07:49;99484.84;;;17.32;61.56
6506;BME280;3286;49.858;8.768;2023-05-09T00:10:16;99490.03;;;17.19;61.82
6506;BME280;3286;49.858;8.768;2023-05-09T00:12:42;99485.44;;;16.83;63.04
6506;BME280;3286;49.858;8.768;2023-05-09T00:15:10;99483.97;;;17.10;62.41
6506;BME280;3286;49.858;8.768;2023-05-09T00:17:38;99480.75;;;17.51;61.23
6506;BME280;3286;49.858;8.768;2023-05-09T00:20:06;99481.16;;;17.70;60.50
6506;BME280;3286;49.858;8.768;2023-05-09T00:22:37;99480.94;;;17.50;61.17
6506;BME280;3286;49.858;8.768;2023-05-09T00:25:05;99473.19;;;17.55;60.82
6506;BME280;3286;49.858;8.768;2023-05-09T00:27:32;99470.81;;;17.45;60.97
6506;BME280;3286;49.858;8.768;2023-05-09T00:29:59;99468.88;;;17.54;60.86
6506;BME280;3286;49.858;8.768;2023-05-09T00:32:25;99472.25;;;17.63;60.26
6506;BME280;3286;49.858;8.768;2023-05-09T00:34:54;99464.81;;;17.58;60.57
6506;BME280;3286;49.858;8.768;2023-05-09T00:37:21;99469.97;;;17.60;60.48
6506;BME280;3286;49.858;8.768;2023-05-09T00:39:47;99460.88;;;17.76;60.19
6506;BME280;3286;49.858;8.768;2023-05-09T00:42:14;99463.72;;;17.74;60.02
6506;BME280;3286;49.858;8.768;2023-05-09T00:44:41;99458.75;;;17.93;59.56
6506;BME280;3286;49.858;8.768;2023-05-09T00:47:08;99458.06;;;17.62;60.58
6506;BME280;3286;49.858;8.768;2023-05-09T00:49:35;99459.91;;;17.62;60.42
6506;BME280;3286;49.858;8.768;2023-05-09T00:52:04;99454.00;;;17.66;60.16
6506;BME280;3286;49.858;8.768;2023-05-09T00:54:30;99459.38;;;17.51;60.62
6506;BME280;3286;49.858;8.768;2023-05-09T00:56:57;99444.94;;;17.67;60.34
6506;BME280;3286;49.858;8.768;2023-05-09T00:59:24;99450.19;;;17.76;60.06
6506;BME280;3286;49.858;8.768;2023-05-09T01:01:51;99444.41;;;17.72;59.94
6506;BME280;3286;49.858;8.768;2023-05-09T01:04:18;99442.00;;;17.56;60.54
6506;BME280;3286;49.858;8.768;2023-05-09T01:06:52;99436.84;;;17.76;60.13
6506;BME280;3286;49.858;8.768;2023-05-09T01:09:28;99439.22;;;17.71;60.13
6506;BME280;3286;49.858;8.768;2023-05-09T01:12:05;99437.91;;;17.60;60.47
6506;BME280;3286;49.858;8.768;2023-05-09T01:14:43;99429.69;;;17.61;60.50
6506;BME280;3286;49.858;8.768;2023-05-09T01:17:21;99430.31;;;17.63;60.24
6506;BME280;3286;49.858;8.768;2023-05-09T01:20:00;99426.19;;;17.83;59.99
6506;BME280;3286;49.858;8.768;2023-05-09T01:22:32;99425.06;;;17.70;60.20
6506;BME280;3286;49.858;8.768;2023-05-09T01:28:21;99414.88;;;17.37;60.87
6506;BME280;3286;49.858;8.768;2023-05-09T01:30:52;99425.59;;;17.22;61.19
6506;BME280;3286;49.858;8.768;2023-05-09T01:33:21;99419.19;;;17.38;60.76
6506;BME280;3286;49.858;8.768;2023-05-09T01:35:54;99416.53;;;17.38;60.84
6506;BME280;3286;49.858;8.768;2023-05-09T01:38:24;99421.16;;;17.29;61.03
6506;BME280;3286;49.858;8.768;2023-05-09T01:40:53;99415.88;;;17.36;60.76
6506;BME280;3286;49.858;8.768;2023-05-09T01:43:21;99424.19;;;17.26;61.02
6506;BME280;3286;49.858;8.768;2023-05-09T01:45:52;99420.34;;;17.29;60.94
6506;BME280;3286;49.858;8.768;2023-05-09T01:48:20;99418.75;;;17.56;59.82
6506;BME280;3286;49.858;8.768;2023-05-09T01:50:51;99413.41;;;17.56;59.52
6506;BME280;3286;49.858;8.768;2023-05-09T01:53:19;99401.56;;;17.65;59.16
6506;BME280;3286;49.858;8.768;2023-05-09T01:55:48;99397.66;;;17.40;60.00
6506;BME280;3286;49.858;8.768;2023-05-09T01:58:16;99403.81;;;17.18;61.04
6506;BME280;3286;49.858;8.768;2023-05-09T02:00:44;99398.78;;;17.52;59.88
6506;BME280;3286;49.858;8.768;2023-05-09T02:03:13;99404.53;;;17.49;59.95
6506;BME280;3286;49.858;8.768;2023-05-09T02:05:40;99401.25;;;17.32;60.17
6506;BME280;3286;49.858;8.768;2023-05-09T02:08:08;99395.38;;;17.36;60.13
6506;BME280;3286;49.858;8.768;2023-05-09T02:10:36;99384.59;;;17.30;60.35
6506;BME280;3286;49.858;8.768;2023-05-09T02:13:03;99380.63;;;17.04;61.25
6506;BME280;3286;49.858;8.768;2023-05-09T02:15:29;99384.28;;;17.18;60.80
6506;BME280;3286;49.858;8.768;2023-05-09T02:17:56;99380.66;;;17.26;60.30
6506;BME280;3286;49.858;8.768;2023-05-09T02:20:24;99382.88;;;17.00;61.16
6506;BME280;3286;49.858;8.768;2023-05-09T02:22:51;99394.56;;;17.21;60.52
6506;BME280;3286;49.858;8.768;2023-05-09T02:25:17;99395.63;;;17.05;61.13
6506;BME280;3286;49.858;8.768;2023-05-09T02:27:45;99396.72;;;16.95;61.34
6506;BME280;3286;49.858;8.768;2023-05-09T02:30:15;99391.03;;;16.99;61.02
6506;BME280;3286;49.858;8.768;2023-05-09T02:32:46;99399.91;;;16.99;61.36
6506;BME280;3286;49.858;8.768;2023-05-09T02:35:15;99390.22;;;16.98;60.85
6506;BME280;3286;49.858;8.768;2023-05-09T02:37:44;99382.66;;;17.02;59.89
6506;BME280;3286;49.858;8.768;2023-05-09T02:40:12;99378.16;;;16.87;60.17
6506;BME280;3286;49.858;8.768;2023-05-09T02:42:39;99381.09;;;16.92;59.82
6506;BME280;3286;49.858;8.768;2023-05-09T02:45:07;99372.00;;;17.02;59.06
6506;BME280;3286;49.858;8.768;2023-05-09T02:47:34;99380.75;;;16.50;60.74
6506;BME280;3286;49.858;8.768;2023-05-09T02:50:01;99370.94;;;16.36;60.30
6506;BME280;3286;49.858;8.768;2023-05-09T02:52:28;99357.22;;;16.69;59.33
6506;BME280;3286;49.858;8.768;2023-05-09T02:54:56;99360.28;;;16.51;59.82
6506;BME280;3286;49.858;8.768;2023-05-09T02:57:23;99361.00;;;16.30;59.92
6506;BME280;3286;49.858;8.768;2023-05-09T02:59:49;99360.53;;;16.56;60.03
6506;BME280;3286;49.858;8.768;2023-05-09T03:02:16;99367.25;;;16.67;59.56
6506;BME280;3286;49.858;8.768;2023-05-09T03:04:42;99364.66;;;15.99;61.85
6506;BME280;3286;49.858;8.768;2023-05-09T03:07:09;99364.41;;;16.08;62.24
6506;BME280;3286;49.858;8.768;2023-05-09T03:09:36;99358.16;;;16.31;61.15
6506;BME280;3286;49.858;8.768;2023-05-09T03:12:04;99360.56;;;16.41;60.66
6506;BME280;3286;49.858;8.768;2023-05-09T03:14:31;99367.16;;;16.30;60.11
6506;BME280;3286;49.858;8.768;2023-05-09T03:16:57;99364.16;;;16.18;59.82
6506;BME280;3286;49.858;8.768;2023-05-09T03:19:24;99373.59;;;16.36;58.47
6506;BME280;3286;49.858;8.768;2023-05-09T03:21:51;99368.63;;;16.03;59.91
6506;BME280;3286;49.858;8.768;2023-05-09T03:24:18;99353.38;;;16.27;58.60
6506;BME280;3286;49.858;8.768;2023-05-09T03:26:44;99352.75;;;16.10;58.55
6506;BME280;3286;49.858;8.768;2023-05-09T03:29:12;99345.66;;;16.02;58.88
6506;BME280;3286;49.858;8.768;2023-05-09T03:31:39;99353.56;;;15.95;59.36
6506;BME280;3286;49.858;8.768;2023-05-09T03:34:05;99347.25;;;15.49;60.79
6506;BME280;3286;49.858;8.768;2023-05-09T03:36:37;99348.41;;;15.70;60.61
6506;BME280;3286;49.858;8.768;2023-05-09T03:39:03;99350.91;;;15.72;60.83
6506;BME280;3286;49.858;8.768;2023-05-09T03:41:30;99340.53;;;15.77;60.46
6506;BME280;3286;49.858;8.768;2023-05-09T03:43:56;99335.44;;;15.90;59.57
6506;BME280;3286;49.858;8.768;2023-05-09T03:46:24;99341.84;;;15.81;59.73
6506;BME280;3286;49.858;8.768;2023-05-09T03:48:51;99347.63;;;15.85;59.58
6506;BME280;3286;49.858;8.768;2023-05-09T03:51:18;99342.25;;;15.93;58.82
6506;BME280;3286;49.858;8.768;2023-05-09T03:53:45;99334.97;;;15.63;59.51
6506;BME280;3286;49.858;8.768;2023-05-09T03:56:12;99338.81;;;15.84;58.63
6506;BME280;3286;49.858;8.768;2023-05-09T03:58:39;99337.66;;;15.63;59.08
6506;BME280;3286;49.858;8.768;2023-05-09T04:01:06;99330.81;;;15.84;58.50
6506;BME280;3286;49.858;8.768;2023-05-09T04:03:34;99337.06;;;15.53;59.68
6506;BME280;3286;49.858;8.768;2023-05-09T04:06:01;99328.44;;;15.51;59.04
6506;BME280;3286;49.858;8.768;2023-05-09T04:08:29;99326.72;;;15.58;58.97
6506;BME280;3286;49.858;8.768;2023-05-09T04:10:55;99332.06;;;15.73;58.69
6506;BME280;3286;49.858;8.768;2023-05-09T04:13:22;99332.97;;;15.50;59.10
6506;BME280;3286;49.858;8.768;2023-05-09T04:15:48;99332.84;;;15.44;59.53
6506;BME280;3286;49.858;8.768;2023-05-09T04:18:15;99340.75;;;15.29;61.16
6506;BME280;3286;49.858;8.768;2023-05-09T04:20:43;99345.59;;;15.48;61.57
6506;BME280;3286;49.858;8.768;2023-05-09T04:23:10;99345.06;;;15.53;60.57
6506;BME280;3286;49.858;8.768;2023-05-09T04:25:37;99342.03;;;15.56;60.13
6506;BME280;3286;49.858;8.768;2023-05-09T04:28:04;99343.25;;;15.54;59.61
6506;BME280;3286;49.858;8.768;2023-05-09T04:30:30;99345.59;;;15.72;59.35
6506;BME280;3286;49.858;8.768;2023-05-09T04:32:57;99345.31;;;15.82;59.83
6506;BME280;3286;49.858;8.768;2023-05-09T04:35:24;99337.66;;;16.02;58.83
6506;BME280;3286;49.858;8.768;2023-05-09T04:37:52;99334.44;;;16.06;59.20
6506;BME280;3286;49.858;8.768;2023-05-09T04:40:18;99334.91;;;15.95;59.71
6506;BME280;3286;49.858;8.768;2023-05-09T04:42:45;99332.34;;;16.17;59.33
6506;BME280;3286;49.858;8.768;2023-05-09T04:45:12;99324.63;;;15.92;60.59
6506;BME280;3286;49.858;8.768;2023-05-09T04:47:39;99328.94;;;16.23;60.05
6506;BME280;3286;49.858;8.768;2023-05-09T04:50:06;99331.97;;;16.20;59.89
6506;BME280;3286;49.858;8.768;2023-05-09T04:52:33;99327.00;;;16.02;60.64
6506;BME280;3286;49.858;8.768;2023-05-09T04:55:01;99320.44;;;16.49;59.70
6506;BME280;3286;49.858;8.768;2023-05-09T04:57:28;99327.44;;;16.50;59.66
6506;BME280;3286;49.858;8.768;2023-05-09T04:59:55;99318.78;;;16.48;60.05
6506;BME280;3286;49.858;8.768;2023-05-09T05:02:21;99317.75;;;16.64;59.67
6506;BME280;3286;49.858;8.768;2023-05-09T05:04:49;99309.75;;;16.64;59.94
6506;BME280;3286;49.858;8.768;2023-05-09T05:07:16;99302.31;;;16.75;59.90
6506;BME280;3286;49.858;8.768;2023-05-09T05:09:42;99301.00;;;16.71;60.12
6506;BME280;3286;49.858;8.768;2023-05-09T05:12:10;99300.59;;;16.89;59.45
6506;BME280;3286;49.858;8.768;2023-05-09T05:14:37;99302.47;;;16.73;60.32
6506;BME280;3286;49.858;8.768;2023-05-09T05:17:03;99298.56;;;16.91;60.33
6506;BME280;3286;49.858;8.768;2023-05-09T05:19:30;99304.41;;;17.16;59.38
6506;BME280;3286;49.858;8.768;2023-05-09T05:21:57;99300.31;;;16.99;60.17
6506;BME280;3286;49.858;8.768;2023-05-09T05:24:23;99299.03;;;17.38;59.07
6506;BME280;3286;49.858;8.768;2023-05-09T05:26:50;99297.41;;;17.65;58.34
6506;BME280;3286;49.858;8.768;2023-05-09T05:29:18;99296.75;;;17.35;59.27
6506;BME280;3286;49.858;8.768;2023-05-09T05:31:44;99309.06;;;16.56;61.83
6506;BME280;3286;49.858;8.768;2023-05-09T05:34:11;99304.25;;;16.66;62.21
6506;BME280;3286;49.858;8.768;2023-05-09T05:36:38;99299.09;;;17.45;60.13
6506;BME280;3286;49.858;8.768;2023-05-09T05:39:05;99300.94;;;17.73;59.08
6506;BME280;3286;49.858;8.768;2023-05-09T05:41:32;99296.03;;;17.76;58.91
6506;BME280;3286;49.858;8.768;2023-05-09T05:43:58;99284.53;;;18.04;57.79
6506;BME280;3286;49.858;8.768;2023-05-09T05:46:26;99287.22;;;18.11;58.24
6506;BME280;3286;49.858;8.768;2023-05-09T05:48:53;99284.13;;;18.07;57.38
6506;BME280;3286;49.858;8.768;2023-05-09T05:51:21;99284.94;;;18.01;57.85
6506;BME280;3286;49.858;8.768;2023-05-09T05:53:47;99282.28;;;18.50;56.73
6506;BME280;3286;49.858;8.768;2023-05-09T05:56:14;99283.34;;;18.62;56.52
6506;BME280;3286;49.858;8.768;2023-05-09T05:58:40;99277.63;;;18.79;56.32
6506;BME280;3286;49.858;8.768;2023-05-09T06:01:07;99284.03;;;18.91;56.08
6506;BME280;3286;49.858;8.768;2023-05-09T06:03:35;99276.69;;;19.00;55.57
6506;BME280;3286;49.858;8.768;2023-05-09T06:06:02;99278.75;;;19.25;55.19
6506;BME280;3286;49.858;8.768;2023-05-09T06:08:29;99275.03;;;19.19;54.71
6506;BME280;3286;49.858;8.768;2023-05-09T06:10:56;99271.97;;;19.22;55.06
6506;BME280;3286;49.858;8.768;2023-05-09T06:13:22;99264.75;;;19.30;54.69
6506;BME280;3286;49.858;8.768;2023-05-09T06:15:49;99264.75;;;19.30;54.70
6506;BME280;3286;49.858;8.768;2023-05-09T06:18:15;99260.97;;;19.84;52.97
6506;BME280;3286;49.858;8.768;2023-05-09T06:20:43;99260.13;;;18.90;54.54
6506;BME280;3286;49.858;8.768;2023-05-09T06:23:10;99264.06;;;18.87;55.00
6506;BME280;3286;49.858;8.768;2023-05-09T06:25:37;99258.31;;;18.97;54.82
6506;BME280;3286;49.858;8.768;2023-05-09T06:28:03;99261.84;;;19.38;53.73
6506;BME280;3286;49.858;8.768;2023-05-09T06:30:30;99261.22;;;19.29;53.97
6506;BME280;3286;49.858;8.768;2023-05-09T06:32:56;99265.78;;;19.49;53.58
6506;BME280;3286;49.858;8.768;2023-05-09T06:35:24;99256.28;;;19.60;52.71
6506;BME280;3286;49.858;8.768;2023-05-09T06:37:52;99250.06;;;19.79;52.64
6506;BME280;3286;49.858;8.768;2023-05-09T06:40:19;99248.59;;;19.77;52.93
6506;BME280;3286;49.858;8.768;2023-05-09T06:42:46;99250.03;;;19.86;52.27
6506;BME280;3286;49.858;8.768;2023-05-09T06:45:12;99249.28;;;19.25;54.68
6506;BME280;3286;49.858;8.768;2023-05-09T06:47:39;99243.06;;;19.72;53.69
6506;BME280;3286;49.858;8.768;2023-05-09T06:50:07;99239.53;;;19.78;53.39
6506;BME280;3286;49.858;8.768;2023-05-09T06:52:33;99235.03;;;19.51;53.45
6506;BME280;3286;49.858;8.768;2023-05-09T06:55:02;99235.91;;;17.94;58.48
6506;BME280;3286;49.858;8.768;2023-05-09T06:57:29;99231.50;;;18.83;56.16
6506;BME280;3286;49.858;8.768;2023-05-09T06:59:55;99232.47;;;18.49;56.12
6506;BME280;3286;49.858;8.768;2023-05-09T07:02:22;99232.59;;;17.92;58.11
6506;BME280;3286;49.858;8.768;2023-05-09T07:04:49;99233.31;;;18.56;56.59
6506;BME280;3286;49.858;8.768;2023-05-09T07:07:15;99234.88;;;19.13;54.71
6506;BME280;3286;49.858;8.768;2023-05-09T07:09:42;99234.22;;;19.37;54.20
6506;BME280;3286;49.858;8.768;2023-05-09T07:12:10;99235.50;;;19.42;54.31
6506;BME280;3286;49.858;8.768;2023-05-09T07:14:37;99223.50;;;19.58;53.80
6506;BME280;3286;49.858;8.768;2023-05-09T07:17:03;99222.81;;;19.89;53.05
6506;BME280;3286;49.858;8.768;2023-05-09T07:19:30;99206.88;;;20.08;52.38
6506;BME280;3286;49.858;8.768;2023-05-09T07:21:56;99208.78;;;20.01;53.00
6506;BME280;3286;49.858;8.768;2023-05-09T07:24:23;99208.50;;;19.16;54.46
6506;BME280;3286;49.858;8.768;2023-05-09T07:26:50;99200.25;;;18.98;55.69
6506;BME280;3286;49.858;8.768;2023-05-09T07:29:18;99193.75;;;19.93;53.09
6506;BME280;3286;49.858;8.768;2023-05-09T07:31:45;99196.38;;;20.06;52.85
6506;BME280;3286;49.858;8.768;2023-05-09T07:34:11;99197.78;;;19.23;53.63
6506;BME280;3286;49.858;8.768;2023-05-09T07:36:38;99193.88;;;19.12;55.18
6506;BME280;3286;49.858;8.768;2023-05-09T07:39:05;99186.16;;;19.69;53.84
6506;BME280;3286;49.858;8.768;2023-05-09T07:41:32;99179.50;;;20.45;51.55
6506;BME280;3286;49.858;8.768;2023-05-09T07:43:59;99183.03;;;20.70;51.44
6506;BME280;3286;49.858;8.768;2023-05-09T07:46:26;99170.88;;;20.29;52.43
6506;BME280;3286;49.858;8.768;2023-05-09T07:48:53;99166.03;;;21.09;50.62
6506;BME280;3286;49.858;8.768;2023-05-09T07:51:20;99159.38;;;21.37;49.85
6506;BME280;3286;49.858;8.768;2023-05-09T07:53:46;99168.13;;;20.10;52.24
6506;BME280;3286;49.858;8.768;2023-05-09T07:56:13;99164.13;;;20.26;51.46
6506;BME280;3286;49.858;8.768;2023-05-09T07:58:39;99166.72;;;19.94;53.03
6506;BME280;3286;49.858;8.768;2023-05-09T08:01:06;99164.38;;;20.50;52.15
6506;BME280;3286;49.858;8.768;2023-05-09T08:03:34;99163.13;;;20.85;50.30
6506;BME280;3286;49.858;8.768;2023-05-09T08:06:00;99171.72;;;19.77;54.11
6506;BME280;3286;49.858;8.768;2023-05-09T08:08:28;99156.00;;;20.33;52.48
6506;BME280;3286;49.858;8.768;2023-05-09T08:10:55;99156.00;;;20.97;50.73
6506;BME280;3286;49.858;8.768;2023-05-09T08:13:21;99156.06;;;20.26;52.68
6506;BME280;3286;49.858;8.768;2023-05-09T08:15:48;99160.66;;;20.77;51.52
6506;BME280;3286;49.858;8.768;2023-05-09T08:18:15;99146.97;;;20.92;51.23
6506;BME280;3286;49.858;8.768;2023-05-09T08:20:43;99150.25;;;20.94;50.92
6506;BME280;3286;49.858;8.768;2023-05-09T08:23:09;99141.34;;;19.97;53.92
6506;BME280;3286;49.858;8.768;2023-05-09T08:25:36;99140.94;;;19.87;53.32
6506;BME280;3286;49.858;8.768;2023-05-09T08:28:03;99146.28;;;19.14;55.86
6506;BME280;3286;49.858;8.768;2023-05-09T08:30:29;99132.59;;;20.15;53.16
6506;BME280;3286;49.858;8.768;2023-05-09T08:32:56;99126.88;;;20.69;51.55
6506;BME280;3286;49.858;8.768;2023-05-09T08:35:23;99130.59;;;19.38;54.51
6506;BME280;3286;49.858;8.768;2023-05-09T08:37:51;99125.97;;;19.65;54.78
6506;BME280;3286;49.858;8.768;2023-05-09T08:40:18;99129.38;;;19.34;56.16
6506;BME280;3286;49.858;8.768;2023-05-09T08:42:44;99124.63;;;20.40;53.35
6506;BME280;3286;49.858;8.768;2023-05-09T08:45:15;99122.47;;;20.49;52.13
6506;BME280;3286;49.858;8.768;2023-05-09T08:47:43;99110.81;;;19.98;53.46
6506;BME280;3286;49.858;8.768;2023-05-09T08:50:10;99116.22;;;19.19;56.08
6506;BME280;3286;49.858;8.768;2023-05-09T08:52:39;99111.25;;;19.29;56.20
6506;BME280;3286;49.858;8.768;2023-05-09T08:55:08;99105.06;;;20.59;53.38
6506;BME280;3286;49.858;8.768;2023-05-09T08:57:35;99103.81;;;21.12;51.78
6506;BME280;3286;49.858;8.768;2023-05-09T09:00:03;99110.03;;;20.87;52.29
6506;BME280;3286;49.858;8.768;2023-05-09T09:02:31;99100.38;;;20.54;52.68
6506;BME280;3286;49.858;8.768;2023-05-09T09:04:58;99099.56;;;21.23;51.42
6506;BME280;3286;49.858;8.768;2023-05-09T09:07:26;99102.06;;;20.74;51.86
6506;BME280;3286;49.858;8.768;2023-05-09T09:09:55;99089.41;;;21.06;51.60
6506;BME280;3286;49.858;8.768;2023-05-09T09:12:25;99087.03;;;21.73;50.40
6506;BME280;3286;49.858;8.768;2023-05-09T09:14:53;99085.66;;;21.82;49.84
6506;BME280;3286;49.858;8.768;2023-05-09T09:17:24;99078.84;;;22.40;49.38
6506;BME280;3286;49.858;8.768;2023-05-09T09:19:54;99082.19;;;22.66;47.97
6506;BME280;3286;49.858;8.768;2023-05-09T09:22:23;99074.09;;;22.54;47.89
6506;BME280;3286;49.858;8.768;2023-05-09T09:24:52;99077.97;;;22.70;46.93
6506;BME280;3286;49.858;8.768;2023-05-09T09:27:18;99069.34;;;21.46;49.66
6506;BME280;3286;49.858;8.768;2023-05-09T09:29:47;99079.63;;;20.93;51.07
6506;BME280;3286;49.858;8.768;2023-05-09T09:32:13;99065.63;;;21.28;49.98
6506;BME280;3286;49.858;8.768;2023-05-09T09:34:42;99052.94;;;22.16;48.81
6506;BME280;3286;49.858;8.768;2023-05-09T09:37:20;99056.09;;;23.26;46.45
6506;BME280;3286;49.858;8.768;2023-05-09T09:39:53;99044.69;;;23.65;44.84
6506;BME280;3286;49.858;8.768;2023-05-09T09:42:20;99045.22;;;23.50;45.80
6506;BME280;3286;49.858;8.768;2023-05-09T09:44:55;99043.66;;;22.78;46.28
6506;BME280;3286;49.858;8.768;2023-05-09T09:47:30;99047.69;;;20.85;51.84
6506;BME280;3286;49.858;8.768;2023-05-09T09:49:56;99045.94;;;22.38;48.12
6506;BME280;3286;49.858;8.768;2023-05-09T09:52:23;99029.03;;;22.62;46.76
6506;BME280;3286;49.858;8.768;2023-05-09T09:54:53;99031.84;;;22.91;46.35
6506;BME280;3286;49.858;8.768;2023-05-09T09:57:36;99025.66;;;22.78;46.44
6506;BME280;3286;49.858;8.768;2023-05-09T10:00:07;99017.47;;;22.73;46.50
6506;BME280;3286;49.858;8.768;2023-05-09T10:02:34;99019.19;;;22.55;46.69
6506;BME280;3286;49.858;8.768;2023-05-09T10:05:07;99016.53;;;22.79;46.53
6506;BME280;3286;49.858;8.768;2023-05-09T10:07:34;99017.72;;;22.05;47.75
6506;BME280;3286;49.858;8.768;2023-05-09T10:10:01;99013.44;;;21.85;48.25
6506;BME280;3286;49.858;8.768;2023-05-09T10:12:32;99009.75;;;22.65;47.27
6506;BME280;3286;49.858;8.768;2023-05-09T10:15:01;99009.84;;;22.58;47.38
6506;BME280;3286;49.858;8.768;2023-05-09T10:17:30;99002.22;;;22.79;46.71
6506;BME280;3286;49.858;8.768;2023-05-09T10:20:01;98999.06;;;22.82;46.89
6506;BME280;3286;49.858;8.768;2023-05-09T10:22:28;98991.13;;;22.87;46.81
6506;BME280;3286;49.858;8.768;2023-05-09T10:25:01;98993.75;;;22.99;46.78
6506;BME280;3286;49.858;8.768;2023-05-09T10:27:29;98986.13;;;23.32;45.92
6506;BME280;3286;49.858;8.768;2023-05-09T10:30:06;98981.25;;;22.33;47.41
6506;BME280;3286;49.858;8.768;2023-05-09T10:32:42;98978.78;;;21.65;48.58
6506;BME280;3286;49.858;8.768;2023-05-09T10:35:13;98974.16;;;21.23;51.02
6506;BME280;3286;49.858;8.768;2023-05-09T10:37:41;98966.31;;;21.71;49.32
6506;BME280;3286;49.858;8.768;2023-05-09T10:40:10;98965.13;;;21.18;49.98
6506;BME280;3286;49.858;8.768;2023-05-09T10:42:40;98963.63;;;20.66;51.30
6506;BME280;3286;49.858;8.768;2023-05-09T10:45:08;98967.16;;;20.60;52.27
6506;BME280;3286;49.858;8.768;2023-05-09T10:47:35;98965.88;;;19.93;54.12
6506;BME280;3286;49.858;8.768;2023-05-09T10:50:05;98967.00;;;19.78;54.70
6506;BME280;3286;49.858;8.768;2023-05-09T10:52:33;98948.97;;;21.36;50.94
6506;BME280;3286;49.858;8.768;2023-05-09T10:55:02;98952.00;;;21.09;51.11
6506;BME280;3286;49.858;8.768;2023-05-09T10:57:30;98934.09;;;22.78;48.23
6506;BME280;3286;49.858;8.768;2023-05-09T10:59:58;98933.31;;;22.54;47.83
6506;BME280;3286;49.858;8.768;2023-05-09T11:02:25;98923.28;;;24.68;43.88
6506;BME280;3286;49.858;8.768;2023-05-09T11:05:15;98921.34;;;22.26;48.17
6506;BME280;3286;49.858;8.768;2023-05-09T11:07:42;98917.50;;;22.34;47.97
6506;BME280;3286;49.858;8.768;2023-05-09T11:10:14;98915.22;;;21.40;49.73
6506;BME280;3286;49.858;8.768;2023-05-09T11:12:55;98911.50;;;21.72;48.82
6506;BME280;3286;49.858;8.768;2023-05-09T11:15:22;98902.28;;;23.04;46.50
6506;BME280;3286;49.858;8.768;2023-05-09T11:17:50;98890.88;;;22.85;47.08
6506;BME280;3286;49.858;8.768;2023-05-09T11:20:26;98894.34;;;22.45;47.81
6506;BME280;3286;49.858;8.768;2023-05-09T11:22:56;98891.81;;;23.49;45.53
6506;BME280;3286;49.858;8.768;2023-05-09T11:25:24;98890.25;;;22.06;47.83
6506;BME280;3286;49.858;8.768;2023-05-09T11:27:57;98886.69;;;21.27;50.03
6506;BME280;3286;49.858;8.768;2023-05-09T11:30:34;98879.84;;;21.86;47.99
6506;BME280;3286;49.858;8.768;2023-05-09T11:33:02;98874.97;;;22.83;46.66
6506;BME280;3286;49.858;8.768;2023-05-09T11:35:36;98869.34;;;23.60;44.80
6506;BME280;3286;49.858;8.768;2023-05-09T11:38:04;98870.56;;;23.06;45.65
6506;BME280;3286;49.858;8.768;2023-05-09T11:40:31;98865.22;;;22.06;47.51
6506;BME280;3286;49.858;8.768;2023-05-09T11:42:59;98866.88;;;22.83;45.47
6506;BME280;3286;49.858;8.768;2023-05-09T11:45:28;98858.41;;;23.50;44.69
6506;BME280;3286;49.858;8.768;2023-05-09T11:47:55;98852.22;;;24.00;42.02
6506;BME280;3286;49.858;8.768;2023-05-09T11:50:22;98856.41;;;22.58;45.88
6506;BME280;3286;49.858;8.768;2023-05-09T11:52:50;98852.19;;;23.66;42.98
6506;BME280;3286;49.858;8.768;2023-05-09T11:55:18;98849.63;;;24.28;42.45
6506;BME280;3286;49.858;8.768;2023-05-09T11:57:48;98846.59;;;22.93;44.52
6506;BME280;3286;49.858;8.768;2023-05-09T12:00:15;98842.31;;;23.89;43.11
6506;BME280;3286;49.858;8.768;2023-05-09T12:02:43;98829.34;;;23.69;42.36
6506;BME280;3286;49.858;8.768;2023-05-09T12:05:11;98827.63;;;24.19;42.00
6506;BME280;3286;49.858;8.768;2023-05-09T12:07:39;98824.94;;;24.19;41.36
6506;BME280;3286;49.858;8.768;2023-05-09T12:10:08;98827.84;;;23.44;42.76
6506;BME280;3286;49.858;8.768;2023-05-09T12:12:36;98820.97;;;22.90;44.70
6506;BME280;3286;49.858;8.768;2023-05-09T12:15:07;98813.78;;;24.33;42.37
6506;BME280;3286;49.858;8.768;2023-05-09T12:17:34;98809.34;;;22.61;45.05
6506;BME280;3286;49.858;8.768;2023-05-09T12:20:01;98807.50;;;22.49;46.14
6506;BME280;3286;49.858;8.768;2023-05-09T12:22:30;98798.31;;;23.20;43.91
6506;BME280;3286;49.858;8.768;2023-05-09T12:24:58;98790.69;;;23.46;43.98
6506;BME280;3286;49.858;8.768;2023-05-09T12:27:27;98787.47;;;24.67;41.35
6506;BME280;3286;49.858;8.768;2023-05-09T12:29:54;98781.72;;;23.97;42.43
6506;BME280;3286;49.858;8.768;2023-05-09T12:32:21;98779.88;;;24.20;41.26
6506;BME280;3286;49.858;8.768;2023-05-09T12:34:48;98770.34;;;23.95;42.73
6506;BME280;3286;49.858;8.768;2023-05-09T12:37:17;98771.69;;;24.81;40.77
6506;BME280;3286;49.858;8.768;2023-05-09T12:39:51;98752.97;;;24.25;40.92
6506;BME280;3286;49.858;8.768;2023-05-09T12:42:27;98760.09;;;24.36;42.01
6506;BME280;3286;49.858;8.768;2023-05-09T12:44:54;98752.53;;;23.37;42.79
6506;BME280;3286;49.858;8.768;2023-05-09T12:47:21;98747.56;;;23.46;41.95
6506;BME280;3286;49.858;8.768;2023-05-09T12:49:48;98734.53;;;23.77;41.99
6506;BME280;3286;49.858;8.768;2023-05-09T12:52:16;98743.66;;;22.91;44.03
6506;BME280;3286;49.858;8.768;2023-05-09T12:54:45;98740.00;;;24.49;40.79
6506;BME280;3286;49.858;8.768;2023-05-09T12:57:20;98735.34;;;24.44;40.47
6506;BME280;3286;49.858;8.768;2023-05-09T12:59:50;98734.66;;;23.48;41.92
6506;BME280;3286;49.858;8.768;2023-05-09T13:02:24;98721.66;;;23.11;42.16
6506;BME280;3286;49.858;8.768;2023-05-09T13:05:04;98724.00;;;22.73;43.34
6506;BME280;3286;49.858;8.768;2023-05-09T13:07:37;98723.16;;;23.75;41.41
6506;BME280;3286;49.858;8.768;2023-05-09T13:10:09;98714.56;;;23.22;42.56
6506;BME280;3286;49.858;8.768;2023-05-09T13:12:37;98710.94;;;22.99;43.05
6506;BME280;3286;49.858;8.768;2023-05-09T13:15:06;98702.53;;;23.86;41.51
6506;BME280;3286;49.858;8.768;2023-05-09T13:17:33;98698.91;;;24.42;40.13
6506;BME280;3286;49.858;8.768;2023-05-09T13:20:00;98688.47;;;24.51;39.55
6506;BME280;3286;49.858;8.768;2023-05-09T13:22:27;98693.91;;;24.83;39.90
6506;BME280;3286;49.858;8.768;2023-05-09T13:24:54;98683.28;;;22.86;41.80
6506;BME280;3286;49.858;8.768;2023-05-09T13:27:20;98680.19;;;23.29;41.55
6506;BME280;3286;49.858;8.768;2023-05-09T13:29:47;98680.09;;;23.80;40.67